Latest Weather Observations for Warburton

IDD60801

Issued at 5:01 pm CST Wednesday 28 September 2022 (issued every 10 minutes, with the page automatically refreshed every 10 minutes)

About weather observations | Map of weather stations | Latest weather observations for NT | Other Formats
Station Details ID: 013011 Name: WARBURTON AIRFIELD Lat: -26.13 Lon: 126.58 Height: 459.0 m
Data from the previous 72 hours. | See also: Recent months at Warburton
Date/Time
CST
Temp
°C
App
Temp
°C
Dew
Point
°C
Rel
Hum
%
Delta-T
°C
Wind Press
QNH
hPa
Press
MSL
hPa
Rain since
9am
mm
Dir  Spd
km/h
Gust
km/h
Spd
kts
Gust
kts
28/05:00pm 28.5 22.3 -0.6 15 13.9 ESE 22 35 12 19 1014.7 1013.0 0.0
28/04:30pm 28.2 22.3 -0.9 15 13.8 ESE 20 37 11 20 1014.9 1013.2 0.0
28/04:00pm 28.5 23.0 0.3 16 13.7 E 19 35 10 19 1015.1 1013.5 0.0
28/03:30pm 28.7 23.0 0.4 16 13.8 ESE 20 30 11 16 1015.6 1014.0 0.0
28/03:00pm 27.9 21.4 0.6 17 13.3 ESE 24 41 13 22 1015.9 1014.3 0.0
28/02:52pm 28.8 22.8 1.3 17 13.6 SE 22 41 12 22 1016.0 1014.4 0.0
28/02:30pm 28.1 23.8 0.8 17 13.3 ENE 13 22 7 12 1016.4 1014.8 0.0
28/02:00pm 28.2 23.3 1.7 18 13.2 ESE 17 33 9 18 1016.5 1014.9 0.0
28/01:30pm 27.0 21.5 2.1 20 12.3 E 20 32 11 17 1017.1 1015.5 0.0
28/01:00pm 27.1 21.9 3.6 22 12.0 ENE 20 35 11 19 1017.3 1015.7 0.0
28/12:30pm 26.2 20.4 4.6 25 11.1 ENE 24 37 13 20 1017.9 1016.3 0.0
28/12:00pm 25.7 19.6 4.8 26 10.8 ENE 26 39 14 21 1018.2 1016.6 0.0
28/11:30am 24.8 18.3 4.5 27 10.3 E 28 39 15 21 1018.6 1017.0 0.0
28/11:00am 24.3 17.6 3.6 26 10.4 E 28 44 15 24 1019.1 1017.5 0.0
28/10:45am 23.0 16.2 3.0 27 9.8 ENE 28 46 15 25 1019.4 1017.8 0.0
28/10:30am 22.8 16.4 3.4 28 9.6 E 26 37 14 20 1019.5 1017.9 0.0
28/10:00am 21.3 14.9 3.0 30 8.9 ENE 26 39 14 21 1019.5 1017.9 0.0
28/09:30am 19.6 12.8 2.9 33 8.0 E 28 39 15 21 1019.7 1018.1 0.0
28/09:00am 18.9 13.2 2.7 34 7.7 E 22 33 12 18 1019.6 1018.0 0.0
28/08:30am 17.5 11.9 1.1 33 7.4 ESE 20 28 11 15 1019.4 1017.8 0.0
28/08:00am 16.3 10.6 0.8 35 6.9 ESE 20 28 11 15 1019.1 1017.5 0.0
28/07:30am 15.2 9.5 0.6 37 6.4 ESE 20 32 11 17 1018.7 1017.1 0.0
28/07:00am 14.6 8.9 0.5 38 6.2 ESE 20 28 11 15 1018.6 1017.0 0.0
28/06:30am 14.9 9.2 0.4 37 6.3 ESE 20 30 11 16 1018.2 1016.6 0.0
28/06:00am 15.2 8.3 0.2 36 6.5 ESE 26 35 14 19 1017.8 1016.2 0.0
28/05:30am 15.5 9.0 0.5 36 6.6 ESE 24 32 13 17 1017.7 1016.1 0.0
28/05:00am 15.7 8.8 0.3 35 6.8 ESE 26 35 14 19 1017.5 1015.9 0.0
28/04:30am 16.1 8.8 0.3 34 7.0 ESE 28 37 15 20 1017.5 1015.9 0.0
28/04:00am 16.3 9.4 0.0 33 7.2 ESE 26 35 14 19 1017.6 1016.0 0.0
28/03:30am 16.6 10.5 0.3 33 7.2 ESE 22 33 12 18 1017.6 1016.0 0.0
28/03:00am 17.1 10.2 -0.1 31 7.6 ESE 26 35 14 19 1017.8 1016.2 0.0
28/02:30am 17.4 11.2 -0.3 30 7.8 ESE 22 32 12 17 1017.9 1016.3 0.0
28/02:00am 17.8 11.2 -0.5 29 8.1 ESE 24 32 13 17 1018.2 1016.6 0.0
28/01:30am 18.2 12.3 -0.6 28 8.3 ESE 20 28 11 15 1018.3 1016.7 0.0
28/01:00am 18.4 12.5 -0.9 27 8.5 SE 20 28 11 15 1018.1 1016.5 0.0
28/12:30am 18.6 11.9 -1.3 26 8.7 SE 24 35 13 19 1018.1 1016.5 0.0
28/12:00am 19.0 12.3 -1.4 25 8.9 SE 24 35 13 19 1018.3 1016.7 0.0
 
Date/Time
CST
Temp
°C
App
Temp
°C
Dew
Point
°C
Rel
Hum
%
Delta-T
°C
Wind Press
QNH
hPa
Press
MSL
hPa
Rain since
9am
mm
Dir  Spd
km/h
Gust
km/h
Spd
kts
Gust
kts
27/11:30pm 19.4 13.4 -1.7 24 9.2 SE 20 28 11 15 1018.4 1016.8 0.0
27/11:00pm 20.0 14.3 -0.6 25 9.2 SE 19 24 10 13 1018.3 1016.7 0.0
27/10:30pm 20.6 14.0 -0.1 25 9.4 SE 24 32 13 17 1018.3 1016.7 0.0
27/10:00pm 21.3 14.7 -0.1 24 9.8 SE 24 35 13 19 1018.2 1016.6 0.0
27/09:30pm 21.6 15.5 0.2 24 9.8 SE 22 32 12 17 1018.2 1016.6 0.0
27/09:00pm 22.1 15.6 0.0 23 10.2 SE 24 33 13 18 1018.0 1016.4 0.0
27/08:30pm 22.5 16.3 -0.3 22 10.5 SE 22 33 12 18 1017.8 1016.2 0.0
27/08:00pm 23.1 17.3 0.2 22 10.7 SE 20 28 11 15 1017.5 1015.9 0.0
27/07:30pm 23.6 17.3 1.3 23 10.6 SE 24 35 13 19 1017.2 1015.6 0.0
27/07:00pm 24.1 17.4 1.7 23 10.8 SE 26 39 14 21 1016.9 1015.2 0.0
27/06:30pm 24.7 18.1 2.2 23 11.0 SE 26 37 14 20 1016.4 1014.8 0.0
27/06:00pm 25.2 18.3 2.6 23 11.2 SE 28 37 15 20 1016.1 1014.5 0.0
27/05:30pm 25.8 19.1 3.7 24 11.2 SE 28 43 15 23 1015.9 1014.3 0.0
27/05:00pm 26.2 19.8 5.2 26 11.0 SE 28 39 15 21 1015.8 1014.2 0.0
27/04:30pm 26.1 19.8 5.7 27 10.7 SE 28 44 15 24 1015.8 1014.2 0.0
27/04:00pm 26.3 20.0 5.8 27 10.8 SE 28 43 15 23 1015.9 1014.3 0.0
27/03:38pm 26.0 19.8 6.1 28 10.5 ESE 28 48 15 26 1016.3 1014.7 0.0
27/03:30pm 26.3 20.4 5.8 27 10.8 ESE 26 46 14 25 1016.4 1014.8 0.0
27/03:00pm 25.4 18.7 5.6 28 10.3 SE 30 48 16 26 1016.8 1015.1 0.0
27/02:30pm 25.7 19.4 5.8 28 10.4 ESE 28 46 15 25 1017.3 1015.7 0.0
27/02:21pm 24.9 18.6 5.7 29 10.0 ESE 28 46 15 25 1017.3 1015.7 0.0
27/02:00pm 24.2 17.4 5.1 29 9.8 ESE 30 39 16 21 1017.9 1016.3 0.0
27/01:30pm 24.5 17.8 5.8 30 9.7 SE 30 43 16 23 1018.2 1016.6 0.0
27/01:00pm 23.1 16.6 4.6 30 9.4 ESE 28 37 15 20 1018.8 1017.2 0.0
27/12:30pm 22.8 15.8 4.3 30 9.3 ESE 30 41 16 22 1019.4 1017.8 0.0
27/12:00pm 21.7 14.7 3.9 31 8.8 ESE 30 43 16 23 1019.8 1018.2 0.0
27/11:30am 21.6 14.9 3.8 31 8.8 ESE 28 39 15 21 1020.2 1018.6 0.0
27/11:05am 20.0 12.5 3.7 34 7.9 ESE 32 50 17 27 1020.5 1018.9 0.0
27/11:00am 19.8 12.1 3.5 34 7.9 SE 33 46 18 25 1020.5 1018.9 0.0
27/10:38am 18.5 11.2 2.4 34 7.6 ESE 30 50 16 27 1020.7 1019.1 0.0
27/10:30am 18.5 11.0 3.6 37 7.1 ESE 32 44 17 24 1020.8 1019.3 0.0
27/10:00am 18.1 9.9 2.8 36 7.2 ESE 35 50 19 27 1020.9 1019.4 0.0
27/09:30am 16.9 8.8 3.2 40 6.4 ESE 35 54 19 29 1020.9 1019.4 0.0
27/09:22am 16.3 8.1 2.7 40 6.3 ESE 35 54 19 29 1020.9 1019.4 0.0
27/09:00am 15.9 8.1 3.0 42 6.0 ESE 33 48 18 26 1020.6 1019.0 0.0
27/08:33am 15.5 7.7 3.0 43 5.8 SE 33 52 18 28 1020.5 1018.9 0.0
27/08:30am 15.3 6.7 2.8 43 5.8 SE 37 52 20 28 1020.4 1018.8 0.0
27/08:10am 15.2 7.5 2.4 42 5.9 SE 32 52 17 28 1020.4 1018.8 0.0
27/08:00am 14.9 7.6 2.4 43 5.7 SE 30 46 16 25 1020.3 1018.7 0.0
27/07:30am 14.3 7.3 1.9 43 5.5 SE 28 41 15 22 1020.1 1018.5 0.0
27/07:00am 14.1 6.6 1.4 42 5.6 SE 30 48 16 26 1019.6 1018.0 0.0
27/06:34am 14.2 6.3 0.8 40 5.9 SE 32 50 17 27 1019.4 1017.8 0.0
27/06:30am 14.2 6.1 0.8 40 5.9 SE 33 50 18 27 1019.3 1017.7 0.0
27/06:00am 14.4 6.4 0.3 38 6.1 SE 32 46 17 25 1018.8 1017.2 0.0
27/05:30am 14.7 7.4 -0.2 36 6.4 SE 28 39 15 21 1018.7 1017.1 0.0
27/05:11am 14.9 7.5 -0.8 34 6.7 SE 28 46 15 25 1018.4 1016.8 0.0
27/05:00am 15.0 7.2 -0.7 34 6.7 SE 30 41 16 22 1018.3 1016.7 0.0
27/04:30am 15.1 6.9 -1.0 33 6.8 SE 32 43 17 23 1018.0 1016.4 0.0
27/04:00am 15.3 7.4 -1.3 32 7.0 SE 30 43 16 23 1018.3 1016.7 0.0
27/03:30am 15.5 8.0 -1.5 31 7.2 SE 28 44 15 24 1018.4 1016.8 0.0
27/03:00am 15.6 8.4 -1.9 30 7.3 SE 26 37 14 20 1018.6 1017.0 0.0
27/02:30am 15.8 9.0 -2.2 29 7.5 SE 24 32 13 17 1018.7 1017.1 0.0
27/02:00am 16.2 9.3 -2.3 28 7.7 SE 24 39 13 21 1019.1 1017.5 0.0
27/01:30am 16.4 9.1 -2.6 27 7.9 SE 26 37 14 20 1019.1 1017.5 0.0
27/01:00am 16.8 8.7 -2.8 26 8.1 SE 30 43 16 23 1019.2 1017.6 0.0
27/12:30am 17.1 9.4 -3.1 25 8.3 SE 28 41 15 22 1019.3 1017.7 0.0
27/12:00am 17.4 10.0 -3.4 24 8.6 SE 26 41 14 22 1019.5 1017.9 0.0
 
Date/Time
CST
Temp
°C
App
Temp
°C
Dew
Point
°C
Rel
Hum
%
Delta-T
°C
Wind Press
QNH
hPa
Press
MSL
hPa
Rain since
9am
mm
Dir  Spd
km/h
Gust
km/h
Spd
kts
Gust
kts
26/11:30pm 17.8 10.4 -3.6 23 8.8 SE 26 39 14 21 1019.5 1017.9 0.0
26/11:00pm 18.1 11.1 -3.9 22 9.0 SSE 24 35 13 19 1019.7 1018.1 0.0
26/10:30pm 18.3 11.2 -4.4 21 9.2 SSE 24 39 13 21 1019.7 1018.1 0.0
26/10:00pm 18.7 11.6 -4.0 21 9.4 SSE 24 35 13 19 1019.7 1018.1 0.0
26/09:30pm 19.1 12.8 -3.7 21 9.5 SSE 20 28 11 15 1019.7 1018.1 0.0
26/09:00pm 19.4 12.9 -2.8 22 9.5 SSE 22 30 12 16 1019.5 1017.9 0.0
26/08:30pm 19.8 13.8 -1.3 24 9.3 SSE 20 30 11 16 1019.2 1017.6 0.0
26/08:00pm 20.4 14.4 -1.4 23 9.6 SSE 20 32 11 17 1018.9 1017.4 0.0
26/07:30pm 20.9 14.6 -1.0 23 9.8 SSE 22 30 12 16 1018.4 1016.8 0.0
26/07:00pm 21.5 14.4 -1.1 22 10.1 SSE 26 44 14 24 1018.0 1016.4 0.0
26/06:30pm 22.2 14.7 -1.1 21 10.5 SSE 28 44 15 24 1017.6 1016.0 0.0
26/06:00pm 22.6 15.2 -0.8 21 10.7 SE 28 41 15 22 1017.3 1015.7 0.0
26/05:30pm 23.3 16.0 -0.2 21 10.9 SE 28 41 15 22 1017.2 1015.6 0.0
26/05:00pm 23.5 15.7 -0.7 20 11.1 SE 30 39 16 21 1016.9 1015.2 0.0
26/04:30pm 23.8 16.1 0.2 21 11.0 SSE 30 43 16 23 1016.9 1015.2 0.0
26/04:00pm 23.9 16.4 0.9 22 10.9 SSE 30 52 16 28 1016.9 1015.2 0.0
26/03:57pm 23.5 16.3 0.6 22 10.8 SSE 28 52 15 28 1016.8 1015.1 0.0
26/03:30pm 23.6 15.7 1.3 23 10.6 SE 32 46 17 25 1017.1 1015.5 0.0
26/03:26pm 23.8 16.7 1.4 23 10.7 SE 28 46 15 25 1017.0 1015.3 0.0
26/03:00pm 23.1 15.6 1.5 24 10.3 SE 30 46 16 25 1017.4 1015.8 0.0
26/02:33pm 23.0 16.0 1.9 25 10.1 SSE 28 46 15 25 1017.8 1016.2 0.0
26/02:30pm 22.9 15.5 1.9 25 10.1 SSE 30 46 16 25 1017.8 1016.2 0.0
26/02:24pm 22.0 14.9 1.1 25 9.8 SSE 28 46 15 25 1017.8 1016.2 0.0
26/02:00pm 21.5 13.9 0.7 25 9.7 SSE 30 43 16 23 1018.2 1016.6 0.0
26/01:48pm 21.7 14.2 1.4 26 9.6 SSE 30 50 16 27 1018.3 1016.7 0.0
26/01:30pm 21.2 13.7 1.5 27 9.3 SSE 30 44 16 24 1018.7 1017.1 0.0
26/01:00pm 20.7 12.7 0.5 26 9.3 SSE 32 46 17 25 1019.4 1017.8 0.0
26/12:30pm 19.9 12.5 1.8 30 8.5 SSE 30 48 16 26 1020.0 1018.4 0.0
26/12:25pm 19.3 11.8 1.3 30 8.3 SSE 30 48 16 26 1020.0 1018.4 0.0
26/12:00pm 19.7 12.9 3.0 33 8.0 SSE 28 39 15 21 1020.4 1018.8 0.0
26/11:30am 17.9 10.4 3.4 38 6.9 SE 32 46 17 25 1020.8 1019.3 0.0
26/11:00am 17.2 9.7 3.5 40 6.5 SE 32 43 17 23 1021.4 1019.8 0.0
26/10:30am 16.3 8.8 3.4 42 6.1 SE 32 41 17 22 1021.5 1019.9 0.0
26/10:00am 15.6 8.0 3.1 43 5.8 SE 32 43 17 23 1021.7 1020.1 0.0
26/09:30am 14.6 6.8 2.8 45 5.4 SE 33 46 18 25 1021.7 1020.1 0.0
26/09:00am 13.9 6.0 4.5 53 4.4 SE 35 50 19 27 1021.6 1020.0 0.0
26/08:30am 13.0 6.2 4.9 58 3.8 SE 30 43 16 23 1021.2 1019.7 0.0
26/08:00am 12.1 5.8 5.7 65 3.1 SE 28 39 15 21 1020.8 1019.3 0.0
26/07:30am 11.5 5.2 5.6 67 2.8 SE 28 39 15 21 1020.7 1019.1 0.0
26/07:00am 11.3 5.4 5.6 68 2.7 SE 26 39 14 21 1020.4 1018.8 0.0
26/06:30am 11.6 4.9 5.7 67 2.8 SE 30 39 16 21 1019.9 1018.3 0.0
26/06:00am 12.1 6.0 6.6 69 2.7 SE 28 37 15 20 1019.7 1018.1 0.0
26/05:30am 12.7 7.2 7.4 70 2.6 SSE 26 44 14 24 1019.1 1017.5 0.0
26/05:00am 13.2 8.6 8.3 72 2.5 SSE 22 33 12 18 1018.4 1016.8 0.0
26/04:30am 13.7 8.8 8.5 71 2.7 SSE 24 35 13 19 1018.2 1016.6 0.0
26/04:00am 13.5 10.0 8.6 72 2.5 SSE 17 24 9 13 1018.0 1016.4 0.0
26/03:30am 13.1 10.3 8.4 73 2.4 S 13 17 7 9 1017.9 1016.3 0.0
26/03:00am 13.6 10.8 8.4 71 2.7 S 13 17 7 9 1018.0 1016.4 0.0
26/02:30am 13.9 11.0 8.3 69 2.9 S 13 19 7 10 1018.1 1016.5 0.0
26/02:00am 14.3 11.5 8.5 68 3.0 S 13 19 7 10 1018.0 1016.4 0.0
26/01:30am 15.0 12.2 8.5 65 3.4 S 13 17 7 9 1018.1 1016.5 0.0
26/01:00am 15.6 12.8 8.6 63 3.6 SSE 13 19 7 10 1018.1 1016.5 0.0
26/12:30am 16.1 12.9 8.3 60 4.0 SSE 15 19 8 10 1018.2 1016.6 0.0
26/12:00am 16.8 13.2 8.5 58 4.3 SSE 17 24 9 13 1018.1 1016.5 0.0
 
Date/Time
CST
Temp
°C
App
Temp
°C
Dew
Point
°C
Rel
Hum
%
Delta-T
°C
Wind Press
QNH
hPa
Press
MSL
hPa
Rain since
9am
mm
Dir  Spd
km/h
Gust
km/h
Spd
kts
Gust
kts
25/11:30pm 17.1 13.9 8.3 56 4.6 SE 15 20 8 11 1018.1 1016.5 0.0
25/11:00pm 17.8 13.3 8.4 54 4.9 SSE 22 33 12 18 1018.1 1016.5 0.0
25/10:30pm 18.3 14.2 8.6 53 5.1 SE 20 28 11 15 1017.9 1016.3 0.0
25/10:00pm 18.8 14.7 8.7 52 5.4 SE 20 28 11 15 1017.9 1016.3 0.0
25/09:30pm 19.4 14.9 8.7 50 5.7 SSE 22 33 12 18 1017.2 1015.6 0.0
25/09:00pm 20.1 14.1 8.8 48 6.1 SE 30 41 16 22 1016.6 1015.0 0.0
25/08:30pm 20.5 16.4 8.8 47 6.3 SE 20 28 11 15 1016.1 1014.5 0.0
25/08:00pm 21.2 16.8 8.8 45 6.7 SSE 22 32 12 17 1015.8 1014.2 0.0
25/07:30pm 21.7 16.8 8.6 43 7.1 SE 24 33 13 18 1015.4 1013.8 0.0
25/07:00pm 22.4 17.5 8.5 41 7.5 SSE 24 33 13 18 1015.1 1013.5 0.0

Other formats

Comma delimited format used in spreadsheet applications
http://www.bom.gov.au/fwo/IDD60801/IDD60801.94457.axf

JavaScript Object Notation format (JSON) in row-major order
http://www.bom.gov.au/fwo/IDD60801/IDD60801.94457.json

Data quality

Most of these data are generated automatically and are frequently updated. Quality checks on data are not normally performed. It is possible for incorrect values to appear. Refer to information at About Latest Weather Observations and please check the disclaimer before using these data.